Tutti
Maitland Airport (Maitland South Australia) YMLD Meteo
There is no TAF data available at YMLD or any nearby airports.
There is no METAR data available at YMLD. Showing METAR data for YMIN (26 mi SO).
Storico METAR XML recente (nessun dato per YMLD)
| Date | Time (ACST) | Flight Rules | Wind Dir. | Speed | Type | Height AGL (ft) | Visibility | Temp (°C) | Temp (°F) | Dew Point (°C) | Dew Point (°F) | Rel. Humid. | Pressure | Density Altitude | Remarks |
|---|---|---|---|---|---|---|---|---|---|---|---|---|---|---|---|
| 04-set | 05:30 | n/a | 50° | 13 kt | Missing | 12° | 53° | 11° | 51° | 94% | 1015 mb | -301 ft | |||
| 04-set | 04:30 | n/a | 50° | 11 kt | Missing | 12° | 53° | 11° | 51° | 94% | 1016 mb | -330 ft | |||
| 04-set | 03:30 | n/a | 50° | 12 kt | Missing | 11° | 51° | 10° | 50° | 94% | 1017 mb | -480 ft | |||
| 04-set | 02:30 | n/a | 50° | 12 kt | Missing | 10° | 50° | 10° | 50° | 100% | 1018 mb | -630 ft | |||
| 04-set | 01:30 | n/a | 50° | 12 kt | Missing | 10° | 50° | 9° | 48° | 93% | 1018 mb | -630 ft | |||
| 04-set | 00:30 | n/a | 80° | 9 kt | Missing | 10° | 50° | 8° | 46° | 87% | 1018 mb | -630 ft | |||
| 03-set | 23:30 | n/a | 60° | 7 kt | Missing | 11° | 51° | 9° | 48° | 87% | 1020 mb | -569 ft | |||
| 03-set | 22:30 | n/a | 70° | 7 kt | Missing | 13° | 55° | 11° | 51° | 88% | 1020 mb | -329 ft | |||
| 03-set | 21:30 | n/a | 50° | 7 kt | Missing | 13° | 55° | 11° | 51° | 88% | 1021 mb | -358 ft | |||
| 03-set | 20:30 | n/a | 80° | 6 kt | Missing | 13° | 55° | 10° | 50° | 82% | 1021 mb | -358 ft | |||
| 03-set | 19:30 | n/a | Calm | Missing | 13° | 55° | 10° | 50° | 82% | 1020 mb | -329 ft | ||||
| 03-set | 18:30 | n/a | 310° | 5 kt | Missing | 13° | 55° | 11° | 51° | 88% | 1020 mb | -329 ft | |||
| 03-set | 17:30 | n/a | 290° | 6 kt | Missing | 14° | 57° | 10° | 50° | 77% | 1019 mb | -179 ft | |||
| 03-set | 16:30 | n/a | 270° | 9 kt | Missing | 16° | 60° | 10° | 50° | 68% | 1019 mb | 61 ft | |||
| 03-set | 15:30 | n/a | 270° | 9 kt | Missing | 17° | 62° | 10° | 50° | 63% | 1019 mb | 181 ft | |||
| 03-set | 14:30 | n/a | 260° | 12 kt | Missing | 17° | 62° | 12° | 53° | 72% | 1019 mb | 181 ft | |||
| 03-set | 13:30 | n/a | 260° | 13 kt | Missing | 17° | 62° | 11° | 51° | 68% | 1019 mb | 181 ft | |||
| 03-set | 12:30 | n/a | 260° | 11 kt | Missing | 17° | 62° | 13° | 55° | 77% | 1019 mb | 181 ft | |||
| 03-set | 11:30 | n/a | 270° | 11 kt | Missing | 16° | 60° | 14° | 57° | 88% | 1019 mb | 61 ft | |||
| 03-set | 10:30 | n/a | 270° | 14 kt | Missing | 15° | 59° | 13° | 55° | 88% | 1019 mb | -59 ft | |||
| 03-set | 09:30 | n/a | 300° | 14 kt | Missing | 14° | 57° | 13° | 55° | 94% | 1018 mb | -150 ft | |||
| 03-set | 08:30 | n/a | 290° | 13 kt | Missing | 15° | 59° | 13° | 55° | 88% | 1018 mb | -30 ft | |||
| 03-set | 07:30 | n/a | 300° | 11 kt | Missing | 13° | 55° | 12° | 53° | 94% | 1017 mb | -240 ft | |||
| 03-set | 06:30 | n/a | 290° | 11 kt | Missing | 13° | 55° | 11° | 51° | 88% | 1016 mb | -210 ft |
Accedi
| Il tuo browser non è supportato. fai l'upgrade del tuo browser |
